createdAt,value
2024-03-03T00:00:46.704Z,56.80
2024-03-03T00:03:13.769Z,56.70
2024-03-03T00:05:40.725Z,56.70
2024-03-03T00:08:07.840Z,56.80
2024-03-03T00:10:34.850Z,56.80
2024-03-03T00:13:02.049Z,56.80
2024-03-03T00:15:28.972Z,56.90
2024-03-03T00:17:55.919Z,56.90
2024-03-03T00:20:22.950Z,56.90
2024-03-03T00:22:49.868Z,57.00
2024-03-03T00:25:16.807Z,57.20
2024-03-03T00:27:44.556Z,57.00
2024-03-03T00:30:12.658Z,56.90
2024-03-03T00:32:39.632Z,57.00
2024-03-03T00:35:07.098Z,57.10
2024-03-03T00:37:34.137Z,57.20
2024-03-03T00:40:01.150Z,57.20
2024-03-03T00:42:28.652Z,57.30
2024-03-03T00:44:55.443Z,57.30
2024-03-03T00:47:22.262Z,57.30
2024-03-03T00:49:50.743Z,57.30
2024-03-03T00:52:18.036Z,57.40
2024-03-03T00:54:45.237Z,57.30
2024-03-03T00:57:12.175Z,57.60
2024-03-03T00:59:39.020Z,57.50
2024-03-03T01:02:05.963Z,57.40
2024-03-03T01:04:32.970Z,57.40
2024-03-03T01:06:59.888Z,57.40
2024-03-03T01:09:26.817Z,57.40
2024-03-03T01:11:55.410Z,57.50
2024-03-03T01:14:23.668Z,57.30
2024-03-03T01:16:50.726Z,57.00
2024-03-03T01:19:17.876Z,57.10
2024-03-03T01:21:44.965Z,57.20
2024-03-03T01:24:11.814Z,57.30
2024-03-03T01:26:39.122Z,57.30
2024-03-03T01:29:06.038Z,57.30
2024-03-03T01:31:33.510Z,57.40
2024-03-03T01:34:00.710Z,57.40
2024-03-03T01:36:29.271Z,57.40
2024-03-03T01:38:56.223Z,57.60
2024-03-03T01:41:23.288Z,57.50
2024-03-03T01:43:50.176Z,57.80
2024-03-03T01:46:17.121Z,57.60
2024-03-03T01:48:44.477Z,57.80
2024-03-03T01:51:11.351Z,57.90
2024-03-03T01:53:38.438Z,57.90
2024-03-03T01:56:05.876Z,57.70
2024-03-03T01:58:32.854Z,57.80
2024-03-03T02:01:00.898Z,57.80
2024-03-03T02:03:27.922Z,57.80
2024-03-03T02:05:54.935Z,57.90
2024-03-03T02:08:21.783Z,57.90
2024-03-03T02:10:48.786Z,57.90
2024-03-03T02:13:15.864Z,57.90
2024-03-03T02:15:42.819Z,57.90
2024-03-03T02:18:10.008Z,57.80
2024-03-03T02:20:37.353Z,57.90
2024-03-03T02:23:04.484Z,57.80
2024-03-03T02:25:31.435Z,57.80
2024-03-03T02:27:58.420Z,57.90
2024-03-03T02:30:25.532Z,57.90
2024-03-03T02:32:52.477Z,58.00
2024-03-03T02:35:19.380Z,58.20
2024-03-03T02:37:49.231Z,58.10
2024-03-03T02:40:16.241Z,58.30
2024-03-03T02:42:43.207Z,58.20
2024-03-03T02:45:10.244Z,58.10
2024-03-03T02:47:37.341Z,58.10
2024-03-03T02:50:05.559Z,58.10
2024-03-03T02:52:32.487Z,58.10
2024-03-03T02:54:59.587Z,58.70
2024-03-03T02:57:26.646Z,58.10
2024-03-03T02:59:55.628Z,58.20
2024-03-03T03:02:22.762Z,58.10
2024-03-03T03:04:49.840Z,58.20
2024-03-03T03:07:16.942Z,58.10
2024-03-03T03:09:46.787Z,58.10
2024-03-03T03:12:13.762Z,58.30
2024-03-03T03:14:41.042Z,58.20
2024-03-03T03:17:08.966Z,58.20
2024-03-03T03:19:35.771Z,58.30
2024-03-03T03:22:02.822Z,58.60
2024-03-03T03:24:31.096Z,58.70
2024-03-03T03:26:58.122Z,58.70
2024-03-03T03:29:24.977Z,58.70
2024-03-03T03:31:52.077Z,58.60
2024-03-03T03:34:18.970Z,58.70
2024-03-03T03:36:45.973Z,58.80
2024-03-03T03:39:16.782Z,58.90
2024-03-03T03:41:47.543Z,58.70
2024-03-03T03:44:14.787Z,58.60
2024-03-03T03:46:42.646Z,58.60
2024-03-03T03:49:13.822Z,58.70
2024-03-03T03:51:41.146Z,58.80
2024-03-03T03:54:08.376Z,58.80
2024-03-03T03:56:35.379Z,58.90
2024-03-03T03:59:02.440Z,58.80
2024-03-03T04:01:29.795Z,58.90
2024-03-03T04:03:57.342Z,59.00
2024-03-03T04:06:28.502Z,59.20
2024-03-03T04:08:55.700Z,59.30
2024-03-03T04:11:22.788Z,59.20
2024-03-03T04:13:50.381Z,59.00
2024-03-03T04:16:17.960Z,58.70
2024-03-03T04:18:45.618Z,59.20
2024-03-03T04:21:12.612Z,59.00
2024-03-03T04:23:39.633Z,58.90
2024-03-03T04:26:07.399Z,58.90
2024-03-03T04:28:34.648Z,58.80
2024-03-03T04:31:08.539Z,58.90
2024-03-03T04:33:35.755Z,59.00
2024-03-03T04:36:03.164Z,59.00
2024-03-03T04:38:29.994Z,58.90
2024-03-03T04:40:56.833Z,58.90
2024-03-03T04:43:23.704Z,59.00
2024-03-03T04:45:50.836Z,58.80
2024-03-03T04:48:17.775Z,58.80
2024-03-03T04:50:44.802Z,58.90
2024-03-03T04:53:11.746Z,59.00
2024-03-03T04:55:38.705Z,59.10
2024-03-03T04:58:05.650Z,59.30
2024-03-03T05:00:33.580Z,59.40
2024-03-03T05:03:00.543Z,59.40
2024-03-03T05:05:27.465Z,59.20
2024-03-03T05:07:54.371Z,59.00
2024-03-03T05:10:21.662Z,59.10
2024-03-03T05:12:48.625Z,59.10
2024-03-03T05:15:15.928Z,59.00
2024-03-03T05:17:42.870Z,59.10
2024-03-03T05:20:10.095Z,59.00
2024-03-03T05:22:38.250Z,59.10
2024-03-03T05:25:10.242Z,59.20
2024-03-03T05:27:37.620Z,59.40
2024-03-03T05:30:05.096Z,59.40
2024-03-03T05:32:32.078Z,59.50
2024-03-03T05:34:59.086Z,59.60
2024-03-03T05:37:26.520Z,59.60
2024-03-03T05:39:53.492Z,59.70
2024-03-03T05:42:20.325Z,59.60
2024-03-03T05:44:48.006Z,59.50
2024-03-03T05:47:14.977Z,59.60
2024-03-03T05:49:41.890Z,59.50
2024-03-03T05:52:09.108Z,59.40
2024-03-03T05:54:36.112Z,59.30
2024-03-03T05:57:03.209Z,59.30
2024-03-03T05:59:30.102Z,59.30
2024-03-03T06:01:57.105Z,59.20
2024-03-03T06:04:24.158Z,59.20
2024-03-03T06:06:51.148Z,59.50
2024-03-03T06:09:18.047Z,59.70
2024-03-03T06:11:44.944Z,59.70
2024-03-03T06:14:11.889Z,59.80
2024-03-03T06:16:39.012Z,59.70
2024-03-03T06:19:06.120Z,59.70
2024-03-03T06:21:33.661Z,59.60
2024-03-03T06:24:00.505Z,59.60
2024-03-03T06:26:30.401Z,59.70
2024-03-03T06:28:57.594Z,59.90
2024-03-03T06:31:24.508Z,59.80
2024-03-03T06:33:52.169Z,59.70
2024-03-03T06:36:19.857Z,59.90
2024-03-03T06:38:46.986Z,60.10
2024-03-03T06:41:14.594Z,60.00
2024-03-03T06:43:44.995Z,60.00
2024-03-03T06:46:12.310Z,60.30
2024-03-03T06:48:39.576Z,60.60
2024-03-03T06:51:06.993Z,60.70
2024-03-03T06:53:40.416Z,61.10
2024-03-03T06:56:17.244Z,61.20
2024-03-03T06:58:45.711Z,61.10
2024-03-03T07:01:13.577Z,61.10
2024-03-03T07:03:49.452Z,61.20
2024-03-03T07:06:16.403Z,61.10
2024-03-03T07:08:43.262Z,61.40
2024-03-03T07:11:10.267Z,61.50
2024-03-03T07:13:37.280Z,61.90
2024-03-03T07:16:04.412Z,62.00
2024-03-03T07:18:31.399Z,62.00
2024-03-03T07:20:59.009Z,62.70
2024-03-03T07:23:25.872Z,62.40
2024-03-03T07:25:52.782Z,62.50
2024-03-03T07:28:19.657Z,62.30
2024-03-03T07:30:46.788Z,62.60
2024-03-03T07:33:13.775Z,62.80
2024-03-03T07:35:40.821Z,62.60
2024-03-03T07:38:07.703Z,62.80
2024-03-03T07:40:38.563Z,63.10
2024-03-03T07:43:06.574Z,62.80
2024-03-03T07:45:33.752Z,62.80
2024-03-03T07:48:00.737Z,63.70
2024-03-03T07:50:27.708Z,63.90
2024-03-03T07:52:54.592Z,63.70
2024-03-03T07:55:21.617Z,63.90
2024-03-03T07:57:48.642Z,63.50
2024-03-03T08:00:16.064Z,63.80
2024-03-03T08:02:42.986Z,63.70
2024-03-03T08:05:09.959Z,63.90
2024-03-03T08:07:37.288Z,63.50
2024-03-03T08:10:06.440Z,63.90
2024-03-03T08:12:33.442Z,63.30
2024-03-03T08:15:01.593Z,62.90
2024-03-03T08:17:28.567Z,63.20
2024-03-03T08:19:55.461Z,63.90
2024-03-03T08:22:22.380Z,63.60
2024-03-03T08:24:49.444Z,63.70
2024-03-03T08:27:16.407Z,63.90
2024-03-03T08:29:43.293Z,63.70
2024-03-03T08:32:10.391Z,64.20
2024-03-03T08:34:37.718Z,64.10
2024-03-03T08:37:04.693Z,63.60
2024-03-03T08:39:31.667Z,63.80
2024-03-03T08:41:58.773Z,63.90
2024-03-03T08:44:26.120Z,64.00
2024-03-03T08:46:53.410Z,63.80
2024-03-03T08:49:20.879Z,64.00
2024-03-03T08:51:48.095Z,64.30
2024-03-03T08:54:15.102Z,65.10
2024-03-03T08:56:43.409Z,64.80
2024-03-03T08:59:10.252Z,64.90
2024-03-03T09:01:40.204Z,64.30
2024-03-03T09:04:08.042Z,63.80
2024-03-03T09:06:35.885Z,63.70
2024-03-03T09:09:02.855Z,63.90
2024-03-03T09:11:29.895Z,64.40
2024-03-03T09:13:56.830Z,63.90
2024-03-03T09:16:23.734Z,63.70
2024-03-03T09:18:50.742Z,62.60
2024-03-03T09:21:17.773Z,61.40
2024-03-03T09:23:44.688Z,60.10
2024-03-03T09:26:11.540Z,58.50
2024-03-03T09:28:38.733Z,57.30
2024-03-03T09:31:05.764Z,56.90
2024-03-03T09:33:32.887Z,57.00
2024-03-03T09:36:00.059Z,56.90
2024-03-03T09:38:27.015Z,56.50
2024-03-03T09:40:53.936Z,56.20
2024-03-03T09:43:20.854Z,56.00
2024-03-03T09:45:49.369Z,55.40
2024-03-03T09:48:16.266Z,55.20
2024-03-03T09:50:43.869Z,53.60
2024-03-03T09:53:11.018Z,52.80
2024-03-03T09:55:38.752Z,51.60
2024-03-03T09:58:08.574Z,50.80
2024-03-03T10:00:36.318Z,51.00
2024-03-03T10:03:08.030Z,50.70
2024-03-03T10:05:41.057Z,50.40
2024-03-03T10:08:08.529Z,50.10
2024-03-03T10:10:37.511Z,50.50
2024-03-03T10:13:06.020Z,50.90
2024-03-03T10:15:33.198Z,49.50
2024-03-03T10:18:02.859Z,49.60
2024-03-03T10:20:30.599Z,49.80
2024-03-03T10:22:58.577Z,49.80
2024-03-03T10:25:27.187Z,49.30
2024-03-03T10:27:55.367Z,48.60
2024-03-03T10:30:24.245Z,47.90
2024-03-03T10:32:51.391Z,48.10
2024-03-03T10:35:21.389Z,47.00
2024-03-03T10:37:54.982Z,46.60
2024-03-03T10:40:23.025Z,46.30
2024-03-03T10:42:50.320Z,47.10
2024-03-03T10:45:17.477Z,46.50
2024-03-03T10:47:44.565Z,46.80
2024-03-03T10:50:22.794Z,46.30
2024-03-03T10:52:50.605Z,45.90
2024-03-03T10:55:17.814Z,45.30
2024-03-03T10:57:45.711Z,45.90
2024-03-03T11:00:24.077Z,45.60
2024-03-03T11:02:52.964Z,45.40
2024-03-03T11:05:19.908Z,46.50
2024-03-03T11:07:46.974Z,46.40
2024-03-03T11:10:14.848Z,45.20
2024-03-03T11:12:49.204Z,45.00
2024-03-03T11:15:19.879Z,44.60
2024-03-03T11:17:57.887Z,44.60
2024-03-03T11:20:25.593Z,44.50
2024-03-03T11:23:20.892Z,44.90
2024-03-03T11:26:05.082Z,45.20
2024-03-03T11:28:33.332Z,43.00
2024-03-03T11:31:00.261Z,42.40
2024-03-03T11:33:27.841Z,41.70
2024-03-03T11:35:54.903Z,41.10
2024-03-03T11:38:22.442Z,41.10
2024-03-03T11:40:49.870Z,41.20
2024-03-03T11:43:17.342Z,41.30
2024-03-03T11:45:45.580Z,40.50
2024-03-03T11:48:15.501Z,40.30
2024-03-03T11:50:42.573Z,40.30
2024-03-03T11:53:10.841Z,40.40
2024-03-03T11:55:39.743Z,40.00
2024-03-03T11:58:07.770Z,40.00
2024-03-03T12:00:35.576Z,40.20
2024-03-03T12:03:02.521Z,39.80
2024-03-03T12:05:29.599Z,40.50
2024-03-03T12:07:56.976Z,40.40
2024-03-03T12:10:33.770Z,40.30
2024-03-03T12:13:05.538Z,40.10
2024-03-03T12:15:32.613Z,38.90
2024-03-03T12:18:01.381Z,39.40
2024-03-03T12:20:29.364Z,39.40
2024-03-03T12:22:56.407Z,39.50
2024-03-03T12:25:24.761Z,39.60
2024-03-03T12:27:56.624Z,39.00
2024-03-03T12:30:33.222Z,39.20
2024-03-03T12:33:07.790Z,39.20
2024-03-03T12:35:36.018Z,38.40
2024-03-03T12:38:03.128Z,38.50
2024-03-03T12:40:30.157Z,38.50
2024-03-03T12:42:57.216Z,38.80
2024-03-03T12:45:25.534Z,38.90
2024-03-03T12:47:52.477Z,38.50
2024-03-03T12:50:20.325Z,38.70
2024-03-03T12:52:47.609Z,38.60
2024-03-03T12:55:15.210Z,39.00
2024-03-03T12:57:43.070Z,39.60
2024-03-03T13:00:19.771Z,39.10
2024-03-03T13:02:46.811Z,39.90
2024-03-03T13:05:17.858Z,40.40
2024-03-03T13:07:51.973Z,40.10
2024-03-03T13:10:23.575Z,39.60
2024-03-03T13:12:51.597Z,39.80
2024-03-03T13:15:22.412Z,38.50
2024-03-03T13:18:09.052Z,39.10
2024-03-03T13:20:36.410Z,39.30
2024-03-03T13:23:12.093Z,38.10
2024-03-03T13:25:40.650Z,37.90
2024-03-03T13:28:07.868Z,38.40
2024-03-03T13:30:35.958Z,38.50
2024-03-03T13:33:03.139Z,38.40
2024-03-03T13:35:30.069Z,39.00
2024-03-03T13:37:57.015Z,39.10
2024-03-03T13:40:24.123Z,39.50
2024-03-03T13:42:51.022Z,38.50
2024-03-03T13:45:18.048Z,38.30
2024-03-03T13:47:45.073Z,39.00
2024-03-03T13:50:12.061Z,38.80
2024-03-03T13:52:39.566Z,38.10
2024-03-03T13:55:07.660Z,37.90
2024-03-03T13:57:34.606Z,38.10
2024-03-03T14:00:01.638Z,38.00
2024-03-03T14:02:28.489Z,37.80
2024-03-03T14:04:55.481Z,37.90
2024-03-03T14:07:23.097Z,38.30
2024-03-03T14:09:50.501Z,38.40
2024-03-03T14:12:17.496Z,38.70
2024-03-03T14:14:44.666Z,38.50
2024-03-03T14:17:12.249Z,37.90
2024-03-03T14:19:39.220Z,37.50
2024-03-03T14:22:06.207Z,37.80
2024-03-03T14:24:33.244Z,37.90
2024-03-03T14:27:00.165Z,37.70
2024-03-03T14:29:27.143Z,37.90
2024-03-03T14:31:54.211Z,38.80
2024-03-03T14:34:21.196Z,37.90
2024-03-03T14:36:48.474Z,37.70
2024-03-03T14:39:16.165Z,37.80
2024-03-03T14:41:43.050Z,38.00
2024-03-03T14:44:09.930Z,37.90
2024-03-03T14:46:36.864Z,38.10
2024-03-03T14:49:03.837Z,38.30
2024-03-03T14:51:30.928Z,37.80
2024-03-03T14:53:57.836Z,37.70
2024-03-03T14:56:24.775Z,38.00
2024-03-03T14:58:51.637Z,38.40
2024-03-03T15:01:18.629Z,38.30
2024-03-03T15:03:45.922Z,38.50
2024-03-03T15:06:13.012Z,38.00
2024-03-03T15:08:39.899Z,37.90
2024-03-03T15:11:07.038Z,38.20
2024-03-03T15:13:35.095Z,37.30
2024-03-03T15:16:04.365Z,38.00
2024-03-03T15:18:31.259Z,38.10
2024-03-03T15:20:58.721Z,38.00
2024-03-03T15:23:25.621Z,38.50
2024-03-03T15:25:52.650Z,38.60
2024-03-03T15:28:19.589Z,38.80
2024-03-03T15:30:46.496Z,39.00
2024-03-03T15:33:14.722Z,39.30
2024-03-03T15:35:41.690Z,39.70
2024-03-03T15:38:08.711Z,39.70
2024-03-03T15:40:35.762Z,39.20
2024-03-03T15:43:02.755Z,39.60
2024-03-03T15:45:29.659Z,39.90
2024-03-03T15:47:56.615Z,40.30
2024-03-03T15:50:23.574Z,40.10
2024-03-03T15:52:50.499Z,39.30
2024-03-03T15:55:17.462Z,40.00
2024-03-03T15:57:44.572Z,39.90
2024-03-03T16:00:13.308Z,40.10
2024-03-03T16:02:40.414Z,40.40
2024-03-03T16:05:08.164Z,40.40
2024-03-03T16:07:36.758Z,40.70
2024-03-03T16:10:04.462Z,40.80
2024-03-03T16:12:31.494Z,40.60
2024-03-03T16:14:58.385Z,40.60
2024-03-03T16:17:25.306Z,40.30
2024-03-03T16:19:52.836Z,39.90
2024-03-03T16:22:19.789Z,40.20
2024-03-03T16:24:46.669Z,40.30
2024-03-03T16:27:14.648Z,40.40
2024-03-03T16:29:41.563Z,40.60
2024-03-03T16:32:08.655Z,40.30
2024-03-03T16:34:35.652Z,40.40
2024-03-03T16:37:02.780Z,40.60
2024-03-03T16:39:30.622Z,40.60
2024-03-03T16:41:57.562Z,40.40
2024-03-03T16:44:24.448Z,40.60
2024-03-03T16:46:51.329Z,41.00
2024-03-03T16:49:18.327Z,41.10
2024-03-03T16:51:46.125Z,41.20
2024-03-03T16:54:13.049Z,41.40
2024-03-03T16:56:39.928Z,41.70
2024-03-03T16:59:07.289Z,41.30
2024-03-03T17:01:34.501Z,41.30
2024-03-03T17:04:01.895Z,41.50
2024-03-03T17:06:30.657Z,41.90
2024-03-03T17:08:57.610Z,42.00
2024-03-03T17:11:26.058Z,41.90
2024-03-03T17:13:53.108Z,41.90
2024-03-03T17:16:20.854Z,42.10
2024-03-03T17:18:48.906Z,42.90
2024-03-03T17:21:15.804Z,43.00
2024-03-03T17:23:42.673Z,42.70
2024-03-03T17:26:09.517Z,42.80
2024-03-03T17:28:36.415Z,42.80
2024-03-03T17:31:03.430Z,42.90
2024-03-03T17:33:30.389Z,43.00
2024-03-03T17:35:57.272Z,43.20
2024-03-03T17:38:24.323Z,43.30
2024-03-03T17:40:51.246Z,43.80
2024-03-03T17:43:18.081Z,44.10
2024-03-03T17:45:45.063Z,44.10
2024-03-03T17:48:12.024Z,43.80
2024-03-03T17:50:38.916Z,44.00
2024-03-03T17:53:05.803Z,43.70
2024-03-03T17:55:32.849Z,43.80
2024-03-03T17:57:59.827Z,44.00
2024-03-03T18:00:26.888Z,44.00
2024-03-03T18:02:53.943Z,44.10
2024-03-03T18:05:21.194Z,44.10
2024-03-03T18:07:48.173Z,44.10
2024-03-03T18:10:15.120Z,44.10
2024-03-03T18:12:42.149Z,44.20
2024-03-03T18:15:09.548Z,44.10
2024-03-03T18:17:39.823Z,44.20
2024-03-03T18:20:08.256Z,44.40
2024-03-03T18:22:35.454Z,44.50
2024-03-03T18:25:05.551Z,45.90
2024-03-03T18:27:32.403Z,46.10
2024-03-03T18:29:59.354Z,46.10
2024-03-03T18:32:26.307Z,46.10
2024-03-03T18:34:53.277Z,46.20
2024-03-03T18:37:20.204Z,46.30
2024-03-03T18:39:47.167Z,46.30
2024-03-03T18:42:15.861Z,46.30
2024-03-03T18:44:42.753Z,46.30
2024-03-03T18:47:09.761Z,46.40
2024-03-03T18:49:36.965Z,46.40
2024-03-03T18:52:04.592Z,46.60
2024-03-03T18:54:31.560Z,46.90
2024-03-03T18:56:58.765Z,46.80
2024-03-03T18:59:25.703Z,46.90
2024-03-03T19:01:56.422Z,47.00
2024-03-03T19:04:23.999Z,47.10
2024-03-03T19:06:51.514Z,47.20
2024-03-03T19:09:18.477Z,47.20
2024-03-03T19:11:45.971Z,47.10
2024-03-03T19:14:13.506Z,47.20
2024-03-03T19:16:40.766Z,47.30
2024-03-03T19:19:07.828Z,47.30
2024-03-03T19:21:34.830Z,47.50
2024-03-03T19:24:02.599Z,47.50
2024-03-03T19:26:29.516Z,47.70
2024-03-03T19:28:56.362Z,48.00
2024-03-03T19:31:23.405Z,48.20
2024-03-03T19:33:50.731Z,48.20
2024-03-03T19:36:17.775Z,48.20
2024-03-03T19:38:44.812Z,48.20
2024-03-03T19:41:13.084Z,48.30
2024-03-03T19:43:41.443Z,48.20
2024-03-03T19:46:08.484Z,48.40
2024-03-03T19:48:35.412Z,48.40
2024-03-03T19:51:02.299Z,48.40
2024-03-03T19:53:29.187Z,48.60
2024-03-03T19:55:56.088Z,48.80
2024-03-03T19:58:23.237Z,48.80
2024-03-03T20:00:50.407Z,48.90
2024-03-03T20:03:17.442Z,49.00
2024-03-03T20:05:44.352Z,48.90
2024-03-03T20:08:11.189Z,49.10
2024-03-03T20:10:38.787Z,49.20
2024-03-03T20:13:05.927Z,49.30
2024-03-03T20:15:32.999Z,49.50
2024-03-03T20:17:59.946Z,50.00
2024-03-03T20:20:26.780Z,49.50
2024-03-03T20:22:53.688Z,49.60
2024-03-03T20:25:20.740Z,49.60
2024-03-03T20:27:48.257Z,49.60
2024-03-03T20:30:15.641Z,49.70
2024-03-03T20:32:42.623Z,49.70
2024-03-03T20:35:10.680Z,49.70
2024-03-03T20:37:37.731Z,49.90
2024-03-03T20:40:12.734Z,50.00
2024-03-03T20:42:40.616Z,50.10
2024-03-03T20:45:10.399Z,50.10
2024-03-03T20:47:41.740Z,50.30
2024-03-03T20:50:09.996Z,50.30
2024-03-03T20:52:37.753Z,50.40
2024-03-03T20:55:09.192Z,50.50
2024-03-03T20:57:36.887Z,50.40
2024-03-03T21:00:07.773Z,50.50
2024-03-03T21:02:39.918Z,50.60
2024-03-03T21:05:07.448Z,50.60
2024-03-03T21:07:34.937Z,50.60
2024-03-03T21:10:02.593Z,50.60
2024-03-03T21:12:30.026Z,50.70
2024-03-03T21:14:56.904Z,50.80
2024-03-03T21:17:23.798Z,50.70
2024-03-03T21:19:50.826Z,50.70
2024-03-03T21:22:20.937Z,50.90
2024-03-03T21:24:47.979Z,51.10
2024-03-03T21:27:15.007Z,51.20
2024-03-03T21:29:41.977Z,51.30
2024-03-03T21:32:09.138Z,51.10
2024-03-03T21:34:36.142Z,51.10
2024-03-03T21:37:03.122Z,51.20
2024-03-03T21:39:30.174Z,51.20
2024-03-03T21:41:57.309Z,51.40
2024-03-03T21:44:25.785Z,51.40
2024-03-03T21:46:54.073Z,51.40
2024-03-03T21:49:21.012Z,51.40
2024-03-03T21:51:47.950Z,51.60
2024-03-03T21:54:14.910Z,51.80
2024-03-03T21:56:41.885Z,51.80
2024-03-03T21:59:09.319Z,51.90
2024-03-03T22:01:39.997Z,51.90
2024-03-03T22:04:11.473Z,51.90
2024-03-03T22:06:38.359Z,52.60
2024-03-03T22:09:05.689Z,52.00
2024-03-03T22:11:32.667Z,52.10
2024-03-03T22:13:59.754Z,52.20
2024-03-03T22:16:26.664Z,52.40
2024-03-03T22:18:53.553Z,52.60
2024-03-03T22:21:20.547Z,52.60
2024-03-03T22:23:47.978Z,52.60
2024-03-03T22:26:15.007Z,52.70
2024-03-03T22:28:42.515Z,52.80
2024-03-03T22:31:09.621Z,53.00
2024-03-03T22:33:38.058Z,52.90
2024-03-03T22:36:06.174Z,53.30
2024-03-03T22:38:33.166Z,53.40
2024-03-03T22:41:00.088Z,53.70
2024-03-03T22:43:28.514Z,53.50
2024-03-03T22:45:55.755Z,53.40
2024-03-03T22:48:22.623Z,53.40
2024-03-03T22:50:49.608Z,53.50
2024-03-03T22:53:16.735Z,53.40
2024-03-03T22:55:43.640Z,53.60
2024-03-03T22:58:10.678Z,53.60
2024-03-03T23:00:41.315Z,53.60
2024-03-03T23:03:09.289Z,53.60
2024-03-03T23:05:36.224Z,53.60
2024-03-03T23:08:03.760Z,53.60
2024-03-03T23:10:30.691Z,53.60
2024-03-03T23:12:57.618Z,53.80
2024-03-03T23:15:24.607Z,53.80
2024-03-03T23:17:51.573Z,53.70
2024-03-03T23:20:18.637Z,54.00
2024-03-03T23:22:45.507Z,53.80
2024-03-03T23:25:12.478Z,53.90
2024-03-03T23:27:39.513Z,53.90
2024-03-03T23:30:06.802Z,53.90
2024-03-03T23:32:33.859Z,53.80
2024-03-03T23:35:00.997Z,54.00
2024-03-03T23:37:27.971Z,54.10
2024-03-03T23:39:55.015Z,54.10
2024-03-03T23:42:22.068Z,54.00
2024-03-03T23:44:49.189Z,54.30
2024-03-03T23:47:16.166Z,54.20
2024-03-03T23:49:43.306Z,54.10
2024-03-03T23:52:10.219Z,54.20
2024-03-03T23:54:37.173Z,54.30
2024-03-03T23:57:07.156Z,54.30
2024-03-03T23:59:34.258Z,54.50
